Robins Air Force Base
KWRB : rendu visible

Aérodrome :











RETROUVEZ-NOUS SUR...

 
LOGIN :

S'inscrire | Disclaimer

   EN    FR    IT 

 









Légende :    VFR   VFR Marginal   IFR   IFR Intensif   IFR Très Intensif
Visi : 
Plafond : 
>= 8 km
>= 3000ft
5 à 8 km
1000 à 3000 ft
1500m à 5 km
500 à 1000 ft
800 à 1500m
200 à 500 ft
< 800m
< 200 ft
Symboles :   Orages  Brouillard  Fortes neiges  Fortes précipitations  Vent > 20 kt






- Altitude de l'aérodrome : 294 ft


KWRB - Robins Air Force Base

DERNIER METAR :
  • 150856Z 00000KT 10SM CLR 24/24 A2999 RMK AO2A SLP155 T02400240 55005 TSNO $

METARs EXPIRÉS :
  • 150756Z 16005KT 10SM CLR 24/24 A2999 RMK AO2A SLP155 T02400240 TSNO $
  • 150656Z 00000KT 10SM CLR 25/24 A2999 RMK AO2A SLP155 T02450241 TSNO $

TAF TAF KWRB
Valide du 15 à 05h jusqu'au 16 à 11h UTC


150500Z 1505/1611 VRB06KT 9999 FEW250 QNH3000INS
BECMG 1515/1516 VRB06KT 9999 SCT040 QNH3000INS
TEMPO 1516/1523 8000 -SHRA BKN040
BECMG 1607/1608 VRB06KT 4800 BR BKN015 QNH3005INS TX36/1520Z TN23/1511Z
FIR KZTL / Amérique du Nord



MET'MAP, la Météo Aéronautique d'un coup d'oeil ! - Copyright ORBIFLY Décembre 2007 - Disclaimer

ORBIFLY MET'MAP TEAM :

Programmation & Développement : Alexandra Zaïnal
Sur une idée originale de : Baudouin d'Aumeries
Assistance à la programmation : Marc-Olivier Méhu
Soutien technique & logistique : Manuel Goepfert

Contact : metmap@orbifly.com




SOURCES & CREDITS :

   NOAA       Earth
Advisory